sensor_id;sensor_type;location;lat;lon;timestamp;pressure;altitude;pressure_sealevel;temperature;humidity
15998;BME280;8103;51.340;12.326;2023-02-12T00:01:20;102151.47;;;8.13;100.00
15998;BME280;8103;51.340;12.326;2023-02-12T00:03:47;102156.44;;;8.16;99.68
15998;BME280;8103;51.340;12.326;2023-02-12T00:06:15;102160.94;;;8.16;99.79
15998;BME280;8103;51.340;12.326;2023-02-12T00:08:43;102159.38;;;8.21;99.86
15998;BME280;8103;51.340;12.326;2023-02-12T00:11:17;102157.84;;;8.27;99.46
15998;BME280;8103;51.340;12.326;2023-02-12T00:13:44;102160.31;;;8.28;99.26
15998;BME280;8103;51.340;12.326;2023-02-12T00:16:15;102156.44;;;8.31;99.30
15998;BME280;8103;51.340;12.326;2023-02-12T00:18:42;102153.59;;;8.32;98.92
15998;BME280;8103;51.340;12.326;2023-02-12T00:21:10;102154.97;;;8.28;98.94
15998;BME280;8103;51.340;12.326;2023-02-12T00:23:39;102154.34;;;8.26;99.37
15998;BME280;8103;51.340;12.326;2023-02-12T00:26:13;102143.47;;;8.28;99.64
15998;BME280;8103;51.340;12.326;2023-02-12T00:28:40;102149.19;;;8.25;99.58
15998;BME280;8103;51.340;12.326;2023-02-12T00:31:17;102150.81;;;8.26;99.34
15998;BME280;8103;51.340;12.326;2023-02-12T00:33:45;102152.09;;;8.30;99.38
15998;BME280;8103;51.340;12.326;2023-02-12T00:36:20;102146.31;;;8.26;99.02
15998;BME280;8103;51.340;12.326;2023-02-12T00:38:50;102144.84;;;8.24;99.07
15998;BME280;8103;51.340;12.326;2023-02-12T00:41:17;102151.19;;;8.23;99.46
15998;BME280;8103;51.340;12.326;2023-02-12T00:43:45;102159.56;;;8.20;99.23
15998;BME280;8103;51.340;12.326;2023-02-12T00:46:15;102163.91;;;8.21;99.02
15998;BME280;8103;51.340;12.326;2023-02-12T00:48:42;102165.22;;;8.25;99.43
15998;BME280;8103;51.340;12.326;2023-02-12T00:51:09;102170.78;;;8.30;99.02
15998;BME280;8103;51.340;12.326;2023-02-12T00:53:37;102165.22;;;8.25;98.75
15998;BME280;8103;51.340;12.326;2023-02-12T00:56:04;102167.88;;;8.25;98.96
15998;BME280;8103;51.340;12.326;2023-02-12T00:58:31;102171.75;;;8.22;98.97
15998;BME280;8103;51.340;12.326;2023-02-12T01:00:58;102177.91;;;8.23;99.09
15998;BME280;8103;51.340;12.326;2023-02-12T01:03:26;102181.94;;;8.19;99.21
15998;BME280;8103;51.340;12.326;2023-02-12T01:05:54;102179.84;;;8.14;99.28
15998;BME280;8103;51.340;12.326;2023-02-12T01:08:23;102180.69;;;8.15;99.48
15998;BME280;8103;51.340;12.326;2023-02-12T01:11:02;102178.00;;;8.15;99.72
15998;BME280;8103;51.340;12.326;2023-02-12T01:13:31;102180.31;;;8.18;99.35
15998;BME280;8103;51.340;12.326;2023-02-12T01:18:35;102178.25;;;8.20;99.08
15998;BME280;8103;51.340;12.326;2023-02-12T01:21:10;102177.63;;;8.18;98.96
15998;BME280;8103;51.340;12.326;2023-02-12T01:23:37;102181.63;;;8.22;98.82
15998;BME280;8103;51.340;12.326;2023-02-12T01:26:04;102179.59;;;8.24;99.20
15998;BME280;8103;51.340;12.326;2023-02-12T01:28:36;102178.75;;;8.23;98.96
15998;BME280;8103;51.340;12.326;2023-02-12T01:31:17;102174.88;;;8.26;99.29
15998;BME280;8103;51.340;12.326;2023-02-12T01:33:50;102176.13;;;8.30;99.04
15998;BME280;8103;51.340;12.326;2023-02-12T01:36:19;102177.53;;;8.26;98.98
15998;BME280;8103;51.340;12.326;2023-02-12T01:38:48;102186.59;;;8.25;99.02
15998;BME280;8103;51.340;12.326;2023-02-12T01:41:20;102179.84;;;8.29;99.00
15998;BME280;8103;51.340;12.326;2023-02-12T01:46:37;102177.16;;;8.29;99.37
15998;BME280;8103;51.340;12.326;2023-02-12T01:49:13;102174.78;;;8.34;99.15
15998;BME280;8103;51.340;12.326;2023-02-12T01:51:44;102174.78;;;8.34;99.08
15998;BME280;8103;51.340;12.326;2023-02-12T01:54:18;102178.81;;;8.30;99.36
15998;BME280;8103;51.340;12.326;2023-02-12T01:56:48;102172.84;;;8.28;99.22
15998;BME280;8103;51.340;12.326;2023-02-12T01:59:17;102173.28;;;8.31;99.28
15998;BME280;8103;51.340;12.326;2023-02-12T02:01:45;102183.03;;;8.39;99.45
15998;BME280;8103;51.340;12.326;2023-02-12T02:04:19;102179.75;;;8.37;99.06
15998;BME280;8103;51.340;12.326;2023-02-12T02:06:55;102174.03;;;8.40;98.81
15998;BME280;8103;51.340;12.326;2023-02-12T02:09:23;102171.97;;;8.42;98.83
15998;BME280;8103;51.340;12.326;2023-02-12T02:11:51;102181.38;;;8.38;99.13
15998;BME280;8103;51.340;12.326;2023-02-12T02:14:37;102171.72;;;8.37;98.81
15998;BME280;8103;51.340;12.326;2023-02-12T02:17:46;102178.81;;;8.30;99.06
15998;BME280;8103;51.340;12.326;2023-02-12T02:20:54;102171.81;;;8.29;99.08
15998;BME280;8103;51.340;12.326;2023-02-12T02:23:58;102169.81;;;8.31;98.98
15998;BME280;8103;51.340;12.326;2023-02-12T02:27:07;102173.09;;;8.33;99.40
15998;BME280;8103;51.340;12.326;2023-02-12T02:31:07;102176.41;;;8.35;99.16
15998;BME280;8103;51.340;12.326;2023-02-12T02:33:38;102170.44;;;8.33;99.26
15998;BME280;8103;51.340;12.326;2023-02-12T02:36:39;102162.41;;;8.33;99.38
15998;BME280;8103;51.340;12.326;2023-02-12T02:39:31;102160.75;;;8.32;99.07
15998;BME280;8103;51.340;12.326;2023-02-12T02:42:32;102168.22;;;8.36;99.12
15998;BME280;8103;51.340;12.326;2023-02-12T02:45:25;102167.00;;;8.39;99.03
15998;BME280;8103;51.340;12.326;2023-02-12T02:48:01;102164.97;;;8.41;98.78
15998;BME280;8103;51.340;12.326;2023-02-12T02:50:34;102171.97;;;8.42;98.79
15998;BME280;8103;51.340;12.326;2023-02-12T02:53:17;102170.31;;;8.41;99.02
15998;BME280;8103;51.340;12.326;2023-02-12T02:55:52;102169.44;;;8.34;99.41
15998;BME280;8103;51.340;12.326;2023-02-12T02:58:26;102170.31;;;8.41;98.87
15998;BME280;8103;51.340;12.326;2023-02-12T03:01:08;102173.00;;;8.41;99.18
15998;BME280;8103;51.340;12.326;2023-02-12T03:04:05;102178.53;;;8.39;99.37
15998;BME280;8103;51.340;12.326;2023-02-12T03:06:50;102175.66;;;8.41;99.39
15998;BME280;8103;51.340;12.326;2023-02-12T03:09:33;102177.31;;;8.42;99.27
15998;BME280;8103;51.340;12.326;2023-02-12T03:12:13;102175.84;;;8.39;99.38
15998;BME280;8103;51.340;12.326;2023-02-12T03:14:51;102170.69;;;8.38;99.65
15998;BME280;8103;51.340;12.326;2023-02-12T03:17:34;102181.75;;;8.35;99.90
15998;BME280;8103;51.340;12.326;2023-02-12T03:20:25;102183.13;;;8.45;99.64
15998;BME280;8103;51.340;12.326;2023-02-12T03:23:03;102200.00;;;8.46;99.74
15998;BME280;8103;51.340;12.326;2023-02-12T03:25:39;102196.28;;;8.47;99.59
15998;BME280;8103;51.340;12.326;2023-02-12T03:28:25;102196.91;;;8.49;99.78
15998;BME280;8103;51.340;12.326;2023-02-12T03:31:11;102198.69;;;8.42;99.89
15998;BME280;8103;51.340;12.326;2023-02-12T03:34:11;102202.41;;;8.41;99.45
15998;BME280;8103;51.340;12.326;2023-02-12T03:36:58;102201.84;;;8.45;99.76
15998;BME280;8103;51.340;12.326;2023-02-12T03:39:56;102204.94;;;8.49;99.70
15998;BME280;8103;51.340;12.326;2023-02-12T03:46:13;102214.34;;;8.45;99.40
15998;BME280;8103;51.340;12.326;2023-02-12T03:48:58;102217.03;;;8.45;99.73
15998;BME280;8103;51.340;12.326;2023-02-12T03:51:40;102222.84;;;8.48;99.30
15998;BME280;8103;51.340;12.326;2023-02-12T03:54:12;102218.53;;;8.47;99.58
15998;BME280;8103;51.340;12.326;2023-02-12T03:56:54;102219.97;;;8.50;99.48
15998;BME280;8103;51.340;12.326;2023-02-12T03:59:24;102222.28;;;8.53;99.12
15998;BME280;8103;51.340;12.326;2023-02-12T04:01:54;102223.16;;;8.60;99.18
15998;BME280;8103;51.340;12.326;2023-02-12T04:04:24;102228.72;;;8.58;98.93
15998;BME280;8103;51.340;12.326;2023-02-12T04:06:53;102230.16;;;8.61;99.00
15998;BME280;8103;51.340;12.326;2023-02-12T04:09:23;102232.66;;;8.62;98.67
15998;BME280;8103;51.340;12.326;2023-02-12T04:12:26;102233.50;;;8.63;98.71
15998;BME280;8103;51.340;12.326;2023-02-12T04:15:15;102239.50;;;8.65;98.93
15998;BME280;8103;51.340;12.326;2023-02-12T04:17:56;102239.91;;;8.68;98.80
15998;BME280;8103;51.340;12.326;2023-02-12T04:23:47;102240.47;;;8.64;99.13
15998;BME280;8103;51.340;12.326;2023-02-12T04:26:22;102252.84;;;8.65;98.55
15998;BME280;8103;51.340;12.326;2023-02-12T04:31:48;102253.66;;;8.65;98.56
15998;BME280;8103;51.340;12.326;2023-02-12T04:34:44;102256.53;;;8.64;98.57
15998;BME280;8103;51.340;12.326;2023-02-12T04:37:21;102261.88;;;8.64;98.79
15998;BME280;8103;51.340;12.326;2023-02-12T04:39:52;102258.44;;;8.70;98.69
15998;BME280;8103;51.340;12.326;2023-02-12T04:42:20;102260.69;;;8.67;98.19
15998;BME280;8103;51.340;12.326;2023-02-12T04:44:47;102265.84;;;8.68;98.33
15998;BME280;8103;51.340;12.326;2023-02-12T04:47:15;102260.41;;;8.61;98.80
15998;BME280;8103;51.340;12.326;2023-02-12T04:49:42;102271.28;;;8.60;98.37
15998;BME280;8103;51.340;12.326;2023-02-12T04:52:09;102266.31;;;8.57;98.55
15998;BME280;8103;51.340;12.326;2023-02-12T04:54:37;102276.38;;;8.55;98.92
15998;BME280;8103;51.340;12.326;2023-02-12T04:57:04;102265.94;;;8.60;98.73
15998;BME280;8103;51.340;12.326;2023-02-12T04:59:31;102269.66;;;8.59;98.59
15998;BME280;8103;51.340;12.326;2023-02-12T05:01:58;102270.22;;;8.54;98.92
15998;BME280;8103;51.340;12.326;2023-02-12T05:04:24;102269.38;;;8.54;99.07
15998;BME280;8103;51.340;12.326;2023-02-12T05:06:51;102257.28;;;8.58;98.97
15998;BME280;8103;51.340;12.326;2023-02-12T05:09:19;102262.91;;;8.63;98.63
15998;BME280;8103;51.340;12.326;2023-02-12T05:11:46;102264.03;;;8.54;99.01
15998;BME280;8103;51.340;12.326;2023-02-12T05:14:14;102267.25;;;8.49;98.76
15998;BME280;8103;51.340;12.326;2023-02-12T05:16:41;102269.94;;;8.49;99.11
15998;BME280;8103;51.340;12.326;2023-02-12T05:19:07;102257.59;;;8.48;99.04
15998;BME280;8103;51.340;12.326;2023-02-12T05:21:37;102265.03;;;8.53;99.25
15998;BME280;8103;51.340;12.326;2023-02-12T05:24:04;102260.31;;;8.55;99.10
15998;BME280;8103;51.340;12.326;2023-02-12T05:26:31;102263.00;;;8.55;99.27
15998;BME280;8103;51.340;12.326;2023-02-12T05:29:01;102263.38;;;8.52;99.10
15998;BME280;8103;51.340;12.326;2023-02-12T05:31:29;102269.75;;;8.51;99.37
15998;BME280;8103;51.340;12.326;2023-02-12T05:33:56;102269.75;;;8.51;99.46
15998;BME280;8103;51.340;12.326;2023-02-12T05:36:23;102265.78;;;8.47;99.51
15998;BME280;8103;51.340;12.326;2023-02-12T05:38:52;102263.75;;;8.49;99.61
15998;BME280;8103;51.340;12.326;2023-02-12T05:41:23;102267.06;;;8.51;99.50
15998;BME280;8103;51.340;12.326;2023-02-12T05:43:51;102264.22;;;8.52;99.51
15998;BME280;8103;51.340;12.326;2023-02-12T05:46:20;102265.84;;;8.53;99.62
15998;BME280;8103;51.340;12.326;2023-02-12T05:48:47;102269.66;;;8.59;99.33
15998;BME280;8103;51.340;12.326;2023-02-12T05:51:18;102269.66;;;8.59;99.39
15998;BME280;8103;51.340;12.326;2023-02-12T05:53:49;102278.22;;;8.54;99.46
15998;BME280;8103;51.340;12.326;2023-02-12T05:56:24;102272.41;;;8.51;99.56
15998;BME280;8103;51.340;12.326;2023-02-12T05:58:58;102281.09;;;8.53;99.64
15998;BME280;8103;51.340;12.326;2023-02-12T06:01:36;102276.13;;;8.50;99.78
15998;BME280;8103;51.340;12.326;2023-02-12T06:04:07;102277.75;;;8.51;100.00
15998;BME280;8103;51.340;12.326;2023-02-12T06:06:34;102280.72;;;8.56;100.00
15998;BME280;8103;51.340;12.326;2023-02-12T06:13:08;102292.31;;;8.63;100.00
15998;BME280;8103;51.340;12.326;2023-02-12T06:15:36;102283.81;;;8.59;99.69
15998;BME280;8103;51.340;12.326;2023-02-12T06:18:03;102294.34;;;8.61;99.81
15998;BME280;8103;51.340;12.326;2023-02-12T06:20:29;102290.28;;;8.65;99.37
15998;BME280;8103;51.340;12.326;2023-02-12T06:22:56;102298.50;;;8.63;99.84
15998;BME280;8103;51.340;12.326;2023-02-12T06:25:23;102304.22;;;8.60;99.56
15998;BME280;8103;51.340;12.326;2023-02-12T06:27:50;102303.75;;;8.57;99.85
15998;BME280;8103;51.340;12.326;2023-02-12T06:30:17;102308.06;;;8.58;99.90
15998;BME280;8103;51.340;12.326;2023-02-12T06:32:49;102306.06;;;8.60;99.89
15998;BME280;8103;51.340;12.326;2023-02-12T06:35:15;102315.34;;;8.64;99.77
15998;BME280;8103;51.340;12.326;2023-02-12T06:37:42;102309.00;;;8.65;99.78
15998;BME280;8103;51.340;12.326;2023-02-12T06:40:09;102324.03;;;8.66;99.41
15998;BME280;8103;51.340;12.326;2023-02-12T06:42:36;102314.72;;;8.62;99.61
15998;BME280;8103;51.340;12.326;2023-02-12T06:49:30;102330.84;;;8.54;99.54
15998;BME280;8103;51.340;12.326;2023-02-12T06:51:57;102326.91;;;8.50;100.00
15998;BME280;8103;51.340;12.326;2023-02-12T06:54:24;102329.22;;;8.53;100.00
15998;BME280;8103;51.340;12.326;2023-02-12T06:56:50;102335.00;;;8.56;100.00
15998;BME280;8103;51.340;12.326;2023-02-12T06:59:17;102334.81;;;8.58;100.00
15998;BME280;8103;51.340;12.326;2023-02-12T07:01:44;102347.38;;;8.57;100.00
15998;BME280;8103;51.340;12.326;2023-02-12T07:04:11;102334.44;;;8.61;100.00
15998;BME280;8103;51.340;12.326;2023-02-12T07:06:39;102342.56;;;8.68;99.66
15998;BME280;8103;51.340;12.326;2023-02-12T07:09:06;102346.63;;;8.63;100.00
15998;BME280;8103;51.340;12.326;2023-02-12T07:11:36;102348.75;;;8.68;100.00
15998;BME280;8103;51.340;12.326;2023-02-12T07:14:05;102348.34;;;8.71;100.00
15998;BME280;8103;51.340;12.326;2023-02-12T07:16:32;102352.31;;;8.75;100.00
15998;BME280;8103;51.340;12.326;2023-02-12T07:18:59;102363.28;;;8.80;100.00
15998;BME280;8103;51.340;12.326;2023-02-12T07:25:32;102365.31;;;8.78;100.00
15998;BME280;8103;51.340;12.326;2023-02-12T07:27:59;102362.91;;;8.83;100.00
15998;BME280;8103;51.340;12.326;2023-02-12T07:30:26;102357.56;;;8.83;99.91
15998;BME280;8103;51.340;12.326;2023-02-12T07:32:53;102363.91;;;8.82;100.00
15998;BME280;8103;51.340;12.326;2023-02-12T07:35:20;102367.06;;;8.86;99.88
15998;BME280;8103;51.340;12.326;2023-02-12T07:37:47;102370.91;;;8.83;99.88
15998;BME280;8103;51.340;12.326;2023-02-12T07:40:14;102378.56;;;8.86;99.72
15998;BME280;8103;51.340;12.326;2023-02-12T07:42:40;102378.50;;;8.80;99.85
15998;BME280;8103;51.340;12.326;2023-02-12T07:45:08;102378.41;;;8.73;100.00
15998;BME280;8103;51.340;12.326;2023-02-12T07:47:35;102386.25;;;8.75;100.00
15998;BME280;8103;51.340;12.326;2023-02-12T07:50:05;102382.09;;;8.72;100.00
15998;BME280;8103;51.340;12.326;2023-02-12T07:52:32;102389.09;;;8.73;100.00
15998;BME280;8103;51.340;12.326;2023-02-12T07:54:59;102391.91;;;8.65;100.00
15998;BME280;8103;51.340;12.326;2023-02-12T07:57:26;102393.19;;;8.69;100.00
15998;BME280;8103;51.340;12.326;2023-02-12T07:59:53;102389.03;;;8.67;100.00
15998;BME280;8103;51.340;12.326;2023-02-12T08:02:20;102394.38;;;8.67;100.00
15998;BME280;8103;51.340;12.326;2023-02-12T08:04:47;102400.47;;;8.75;100.00
15998;BME280;8103;51.340;12.326;2023-02-12T08:07:14;102393.72;;;8.79;100.00
15998;BME280;8103;51.340;12.326;2023-02-12T08:09:41;102409.56;;;8.81;100.00
15998;BME280;8103;51.340;12.326;2023-02-12T08:12:08;102400.72;;;8.80;100.00
15998;BME280;8103;51.340;12.326;2023-02-12T08:14:34;102401.00;;;8.85;100.00
15998;BME280;8103;51.340;12.326;2023-02-12T08:17:01;102403.84;;;8.84;100.00
15998;BME280;8103;51.340;12.326;2023-02-12T08:19:29;102398.31;;;8.85;100.00
15998;BME280;8103;51.340;12.326;2023-02-12T08:21:56;102399.34;;;8.84;100.00
15998;BME280;8103;51.340;12.326;2023-02-12T08:24:24;102402.84;;;8.85;100.00
15998;BME280;8103;51.340;12.326;2023-02-12T08:26:51;102402.94;;;8.91;100.00
15998;BME280;8103;51.340;12.326;2023-02-12T08:29:27;102398.84;;;8.95;100.00
15998;BME280;8103;51.340;12.326;2023-02-12T08:31:57;102401.72;;;8.94;100.00
15998;BME280;8103;51.340;12.326;2023-02-12T08:34:31;102415.38;;;8.99;100.00
15998;BME280;8103;51.340;12.326;2023-02-12T08:41:27;102415.97;;;9.15;100.00
15998;BME280;8103;51.340;12.326;2023-02-12T08:43:58;102417.09;;;9.21;100.00
15998;BME280;8103;51.340;12.326;2023-02-12T08:46:29;102419.00;;;9.27;100.00
15998;BME280;8103;51.340;12.326;2023-02-12T08:49:03;102417.94;;;9.42;100.00
15998;BME280;8103;51.340;12.326;2023-02-12T08:51:33;102418.06;;;9.55;100.00
15998;BME280;8103;51.340;12.326;2023-02-12T08:54:05;102421.47;;;9.64;100.00
15998;BME280;8103;51.340;12.326;2023-02-12T08:56:33;102416.56;;;9.67;100.00
15998;BME280;8103;51.340;12.326;2023-02-12T08:59:03;102423.19;;;9.71;99.75
15998;BME280;8103;51.340;12.326;2023-02-12T09:01:33;102422.53;;;9.69;100.00
15998;BME280;8103;51.340;12.326;2023-02-12T09:04:00;102416.09;;;9.85;100.00
15998;BME280;8103;51.340;12.326;2023-02-12T09:06:27;102430.97;;;10.08;99.52
15998;BME280;8103;51.340;12.326;2023-02-12T09:08:54;102426.59;;;10.28;98.68
15998;BME280;8103;51.340;12.326;2023-02-12T09:11:25;102429.94;;;10.37;99.07
15998;BME280;8103;51.340;12.326;2023-02-12T09:14:01;102435.59;;;10.48;98.34
15998;BME280;8103;51.340;12.326;2023-02-12T09:16:31;102440.38;;;10.53;97.81
15998;BME280;8103;51.340;12.326;2023-02-12T09:18:58;102439.56;;;10.52;97.67
15998;BME280;8103;51.340;12.326;2023-02-12T09:21:25;102439.09;;;10.42;97.30
15998;BME280;8103;51.340;12.326;2023-02-12T09:23:53;102435.00;;;10.46;97.99
15998;BME280;8103;51.340;12.326;2023-02-12T09:26:23;102441.78;;;10.42;97.76
15998;BME280;8103;51.340;12.326;2023-02-12T09:28:54;102444.25;;;10.44;97.54
15998;BME280;8103;51.340;12.326;2023-02-12T09:31:27;102447.66;;;10.31;96.85
15998;BME280;8103;51.340;12.326;2023-02-12T09:34:03;102456.56;;;10.38;96.76
15998;BME280;8103;51.340;12.326;2023-02-12T09:36:31;102460.38;;;10.50;96.24
15998;BME280;8103;51.340;12.326;2023-02-12T09:38:59;102464.78;;;10.58;95.15
15998;BME280;8103;51.340;12.326;2023-02-12T09:44:52;102461.03;;;10.52;95.98
15998;BME280;8103;51.340;12.326;2023-02-12T09:47:36;102458.97;;;10.54;96.06
15998;BME280;8103;51.340;12.326;2023-02-12T09:50:52;102466.63;;;10.57;95.71
15998;BME280;8103;51.340;12.326;2023-02-12T09:53:27;102473.84;;;10.57;95.71
15998;BME280;8103;51.340;12.326;2023-02-12T09:55:55;102474.91;;;10.62;95.44
15998;BME280;8103;51.340;12.326;2023-02-12T09:58:35;102477.78;;;10.61;95.77
15998;BME280;8103;51.340;12.326;2023-02-12T10:01:16;102481.25;;;10.55;95.91
15998;BME280;8103;51.340;12.326;2023-02-12T10:03:46;102475.81;;;10.48;95.40
15998;BME280;8103;51.340;12.326;2023-02-12T10:06:19;102476.88;;;10.47;95.71
15998;BME280;8103;51.340;12.326;2023-02-12T10:09:00;102485.78;;;10.54;95.13
15998;BME280;8103;51.340;12.326;2023-02-12T10:15:19;102479.59;;;10.26;96.07
15998;BME280;8103;51.340;12.326;2023-02-12T10:17:36;102474.84;;;10.28;96.51
15998;BME280;8103;51.340;12.326;2023-02-12T10:20:54;102480.97;;;10.43;95.79
15998;BME280;8103;51.340;12.326;2023-02-12T10:24:15;102479.53;;;10.47;95.43
15998;BME280;8103;51.340;12.326;2023-02-12T10:26:49;102484.53;;;10.50;95.40
15998;BME280;8103;51.340;12.326;2023-02-12T10:29:26;102479.16;;;10.50;95.54
15998;BME280;8103;51.340;12.326;2023-02-12T10:32:03;102477.34;;;10.57;96.03
15998;BME280;8103;51.340;12.326;2023-02-12T10:34:35;102476.22;;;10.73;95.80
15998;BME280;8103;51.340;12.326;2023-02-12T10:37:39;102473.44;;;10.88;95.43
15998;BME280;8103;51.340;12.326;2023-02-12T10:40:35;102469.19;;;11.06;95.46
15998;BME280;8103;51.340;12.326;2023-02-12T10:43:04;102479.19;;;11.19;94.69
15998;BME280;8103;51.340;12.326;2023-02-12T10:45:37;102477.16;;;11.34;94.58
15998;BME280;8103;51.340;12.326;2023-02-12T10:48:15;102470.00;;;11.54;93.87
15998;BME280;8103;51.340;12.326;2023-02-12T10:51:10;102468.22;;;11.74;93.26
15998;BME280;8103;51.340;12.326;2023-02-12T10:53:44;102472.41;;;11.96;93.03
15998;BME280;8103;51.340;12.326;2023-02-12T11:05:28;102465.88;;;13.14;86.62
15998;BME280;8103;51.340;12.326;2023-02-12T11:07:56;102462.38;;;13.14;85.53
15998;BME280;8103;51.340;12.326;2023-02-12T11:14:33;102459.19;;;12.40;85.49
15998;BME280;8103;51.340;12.326;2023-02-12T11:17:00;102458.38;;;12.20;85.39
15998;BME280;8103;51.340;12.326;2023-02-12T11:19:30;102465.78;;;12.05;85.81
15998;BME280;8103;51.340;12.326;2023-02-12T11:22:11;102453.97;;;11.86;86.21
15998;BME280;8103;51.340;12.326;2023-02-12T11:25:00;102456.41;;;11.62;86.16
15998;BME280;8103;51.340;12.326;2023-02-12T11:27:30;102472.25;;;11.44;86.77
15998;BME280;8103;51.340;12.326;2023-02-12T11:30:19;102465.59;;;11.33;87.47
15998;BME280;8103;51.340;12.326;2023-02-12T11:32:46;102463.47;;;11.22;87.98
15998;BME280;8103;51.340;12.326;2023-02-12T11:39:35;102459.75;;;11.17;87.82
15998;BME280;8103;51.340;12.326;2023-02-12T11:42:17;102466.47;;;11.00;88.86
15998;BME280;8103;51.340;12.326;2023-02-12T11:44:54;102462.91;;;10.93;88.98
15998;BME280;8103;51.340;12.326;2023-02-12T11:47:31;102459.75;;;10.82;89.43
15998;BME280;8103;51.340;12.326;2023-02-12T11:50:26;102452.69;;;10.75;89.73
15998;BME280;8103;51.340;12.326;2023-02-12T11:53:03;102457.00;;;10.69;89.95
15998;BME280;8103;51.340;12.326;2023-02-12T11:55:37;102456.13;;;10.62;90.54
15998;BME280;8103;51.340;12.326;2023-02-12T11:58:22;102457.66;;;10.71;90.73
15998;BME280;8103;51.340;12.326;2023-02-12T12:01:29;102460.00;;;10.88;90.40
15998;BME280;8103;51.340;12.326;2023-02-12T12:04:13;102457.41;;;11.01;90.60
15998;BME280;8103;51.340;12.326;2023-02-12T12:06:54;102452.88;;;11.01;90.06
15998;BME280;8103;51.340;12.326;2023-02-12T12:09:38;102451.16;;;10.94;90.46
15998;BME280;8103;51.340;12.326;2023-02-12T12:12:22;102460.44;;;10.91;90.31
15998;BME280;8103;51.340;12.326;2023-02-12T12:15:00;102454.25;;;10.91;90.16
15998;BME280;8103;51.340;12.326;2023-02-12T12:21:10;102451.97;;;10.88;90.95
15998;BME280;8103;51.340;12.326;2023-02-12T12:26:39;102455.56;;;10.73;90.83
15998;BME280;8103;51.340;12.326;2023-02-12T12:29:19;102456.34;;;10.67;91.00
15998;BME280;8103;51.340;12.326;2023-02-12T12:31:59;102459.47;;;10.64;91.17
15998;BME280;8103;51.340;12.326;2023-02-12T12:34:27;102455.34;;;10.68;91.35
15998;BME280;8103;51.340;12.326;2023-02-12T12:40:17;102449.84;;;10.49;92.19
15998;BME280;8103;51.340;12.326;2023-02-12T12:43:21;102451.69;;;10.48;92.57
15998;BME280;8103;51.340;12.326;2023-02-12T12:46:25;102448.63;;;10.51;91.89
15998;BME280;8103;51.340;12.326;2023-02-12T12:49:42;102440.34;;;10.46;91.92
15998;BME280;8103;51.340;12.326;2023-02-12T12:57:41;102437.03;;;10.44;92.78
15998;BME280;8103;51.340;12.326;2023-02-12T13:04:22;102439.69;;;10.38;92.90
15998;BME280;8103;51.340;12.326;2023-02-12T13:07:29;102438.59;;;10.32;93.52
15998;BME280;8103;51.340;12.326;2023-02-12T13:10:23;102443.75;;;10.34;93.50
15998;BME280;8103;51.340;12.326;2023-02-12T13:13:25;102438.59;;;10.32;93.54
15998;BME280;8103;51.340;12.326;2023-02-12T13:16:34;102434.91;;;10.33;93.68
15998;BME280;8103;51.340;12.326;2023-02-12T13:22:16;102427.84;;;10.32;94.33
15998;BME280;8103;51.340;12.326;2023-02-12T13:25:06;102424.88;;;10.48;93.88
15998;BME280;8103;51.340;12.326;2023-02-12T13:27:43;102425.44;;;10.71;93.79
15998;BME280;8103;51.340;12.326;2023-02-12T13:30:21;102432.34;;;10.87;93.07
15998;BME280;8103;51.340;12.326;2023-02-12T13:33:11;102430.34;;;11.02;92.53
15998;BME280;8103;51.340;12.326;2023-02-12T13:35:47;102428.69;;;11.01;92.50
15998;BME280;8103;51.340;12.326;2023-02-12T13:38:30;102428.25;;;10.98;92.57
15998;BME280;8103;51.340;12.326;2023-02-12T13:41:05;102423.34;;;11.01;92.52
15998;BME280;8103;51.340;12.326;2023-02-12T13:44:17;102420.47;;;11.09;92.51
15998;BME280;8103;51.340;12.326;2023-02-12T13:47:39;102409.78;;;11.22;92.19
15998;BME280;8103;51.340;12.326;2023-02-12T13:54:21;102419.56;;;10.96;91.94
15998;BME280;8103;51.340;12.326;2023-02-12T13:56:57;102420.84;;;11.00;91.71
15998;BME280;8103;51.340;12.326;2023-02-12T14:02:04;102427.06;;;11.13;91.20
15998;BME280;8103;51.340;12.326;2023-02-12T14:08:50;102420.91;;;11.19;90.92
15998;BME280;8103;51.340;12.326;2023-02-12T14:11:24;102419.78;;;11.48;90.20
15998;BME280;8103;51.340;12.326;2023-02-12T14:14:02;102418.38;;;11.65;90.39
15998;BME280;8103;51.340;12.326;2023-02-12T14:24:55;102410.97;;;11.67;89.19
15998;BME280;8103;51.340;12.326;2023-02-12T14:27:44;102409.00;;;11.41;88.87
15998;BME280;8103;51.340;12.326;2023-02-12T14:35:40;102414.97;;;11.37;89.00
15998;BME280;8103;51.340;12.326;2023-02-12T14:40:52;102412.94;;;11.45;88.59
15998;BME280;8103;51.340;12.326;2023-02-12T14:46:51;102410.25;;;11.39;88.67
15998;BME280;8103;51.340;12.326;2023-02-12T14:49:29;102407.72;;;11.31;89.26
15998;BME280;8103;51.340;12.326;2023-02-12T15:01:22;102420.06;;;11.12;88.82
15998;BME280;8103;51.340;12.326;2023-02-12T15:08:31;102431.25;;;11.16;88.67
15998;BME280;8103;51.340;12.326;2023-02-12T15:11:27;102426.09;;;11.21;89.00
15998;BME280;8103;51.340;12.326;2023-02-12T15:14:22;102421.72;;;11.13;88.44
15998;BME280;8103;51.340;12.326;2023-02-12T15:17:11;102425.84;;;11.09;88.90
15998;BME280;8103;51.340;12.326;2023-02-12T15:19:54;102431.66;;;11.13;88.82
15998;BME280;8103;51.340;12.326;2023-02-12T15:22:41;102418.81;;;11.15;89.06
15998;BME280;8103;51.340;12.326;2023-02-12T15:25:24;102432.84;;;11.10;89.12
15998;BME280;8103;51.340;12.326;2023-02-12T15:28:12;102430.16;;;11.04;89.23
15998;BME280;8103;51.340;12.326;2023-02-12T15:30:44;102424.53;;;10.99;89.43
15998;BME280;8103;51.340;12.326;2023-02-12T15:33:44;102423.69;;;10.92;89.08
15998;BME280;8103;51.340;12.326;2023-02-12T15:36:18;102428.19;;;10.85;89.99
15998;BME280;8103;51.340;12.326;2023-02-12T15:38:56;102424.28;;;10.81;89.71
15998;BME280;8103;51.340;12.326;2023-02-12T15:41:36;102432.94;;;10.82;89.49
15998;BME280;8103;51.340;12.326;2023-02-12T15:44:31;102432.13;;;10.82;89.41